Synop

Synop-non standard-Polska


567
SNPL40 SOWR 200800
AAXX 20081
12100 42970 72902 10170 20128 30208 40215 52009 8703/=
12105 42980 82303 10170 20119 30173 40215 52007 8807/=
12115 42580 52305 10187 20122 30196 40210 52005 83238=
12120 42680 62003 10185 20134 30206 40213 55000 863//=
12125 46/// /1904 10180 20120 30168 40216 54000=
12135 42668 31504 10149 20120 30217 40220 58003 82201
  333 82840=
12140 42578 51906 10162 20116 30213 40222 58001 81130=
12160 42582 61703 10170 20113 30179 40230 50002 81250=
12185 42881 51601 10170 20099 30100 40232 50003 83238=
12195 42574 60501 10175 20094 30006 40227 51006 82202=
12200 41468 61901 10148 20128 30205 40211 50004 72522 86300=
12205 41665 60301 10157 20128 30209 40217 52011 72522 86300=
12210 46/// /2603 10167 20126 30155 40217 52009=
12215 36/// /9904 10177 20110 30052 40217 52005=
12230 42980 52104 10201 20110 30131 40218 58001 83052=
12235 42977 41806 10179 20103 30018 40222 50003 84030=
12250 42980 31602 10188 20098 30144 40230 50002 80008=
12270 42981 32301 10178 20092 30056 40233 51005 80008=
12272 42981 43302 10177 20053 30071 40233 51005 80001=
12280 42577 23001 10168 20106 30079 40232 51005 81101=
12285 36/// /9902 10184 20097 30115 40227 52006=
12295 42565 43202 10181 20097 30041 40219 51006 84200=
12300 42870 82301 10150 20119 30136 40224 52013 8253/=
12310 41570 63502 10171 20132 30194 40223 53008 72522 82531=
12330 42970 31904 10196 20114 30121 40226 50006 80002=
12345 42980 31902 10194 20098 30094 40233 50003 80002=
12360 42980 71201 10182 20082 30105 40235 51006 80008=
12375 42680 50000 10184 20105 30103 40230 51006 81232=
12385 42577 50103 10181 20121 30039 40223 52007 82202=
12399 42568 73603 10159 20137 30053 40217 52009 873//=
12400 42675 71902 10193 20118 39995 40222 51009 8115/=
12415 42684 71102 10195 20137 30079 40227 50002 81338=
12418 42980 81803 10196 20128 30117 40227 51003 81037=
12424 42980 51405 10186 20128 30085 40233 50002 80001=
12435 42973 71903 10185 20106 30069 40236 50005 80006=
12455 42574 42202 10175 20115 39999 40238 50005 81208=
12465 42680 53302 10180 20085 30009 40235 51008 81206=
12469 42575 52403 10183 20109 30006 40230 50004 82206=
12488 42580 40302 10186 20117 30074 40224 50006 82231=
12495 42473 63403 10175 20140 39938 40222 51010 85230=
12497 42463 83104 10158 20143 30003 40217 52010 889//=
12500 42681 71001 10194 20117 39823 40225 50001 83208=
12510 42299 62803 10106 20043 38448 48562 53011 84275=
12520 41681 61401 10152 20137 39816 40241 50002 72822 81206=
12530 42661 51602 10172 20121 30045 40239 50004 81102=
12540 41559 61301 10163 20138 39997 40244 50006 71011 83208=
12550 42970 42902 10179 20110 39887 40235 50006 80008=
12560 42565 51101 10183 20118 39908 40238 51006 85200=
12566 42465 22402 10173 20130 39955 40238 51004 82200=
12570 42580 43304 10180 20104 39922 40231 51008 81236=
12575 42574 33302 10177 20126 39983 40231 51004 83200=
12580 42570 53304 10186 20130 39972 40223 51006 85200=
12585 42680 33404 10183 20121 39966 40225 51008 81130=
12595 NIL=
12600 42562 33202 10166 20129 39769 40240 52005 83200=
12625 42570 63402 10137 20095 39251 42858 53005 86200=
12650 41/01 60404 10044 20041 38063 48559 52009 74111 86202=
12660 42563 63401 10177 20119 39884 40233 51003 862//=
12670 41550 72904 10148 20132 39840 40234 52010 71022 875//=
12690 41458 73104 10153 20130 39728 40225 52005 71022 875//=
12695 NIL=




Instytut Meteorologii i Gospodarki Wodnej nie ponosi odpowiedzialności za jakiekolwiek straty spowodowane stosowaniem danych przedstawionych w serwisie WWW.
Dane i Produkty chronione prawem autorskim IMGW. Jakiekolwiek wykorzystywanie lub rozpowszechnianie zabronione.


Powrót do listy produktów